createdAt,value
2017-07-06T00:02:06.368Z,70.80
2017-07-06T00:04:34.461Z,72.50
2017-07-06T00:07:02.717Z,73.20
2017-07-06T00:09:30.859Z,72.40
2017-07-06T00:11:58.941Z,73.40
2017-07-06T00:14:27.029Z,73.90
2017-07-06T00:16:55.205Z,72.40
2017-07-06T00:19:23.291Z,72.80
2017-07-06T00:21:51.376Z,72.10
2017-07-06T00:24:19.496Z,71.60
2017-07-06T00:26:47.588Z,71.90
2017-07-06T00:29:16.567Z,73.00
2017-07-06T00:31:44.720Z,72.10
2017-07-06T00:34:12.996Z,72.70
2017-07-06T00:36:41.079Z,73.70
2017-07-06T00:39:09.170Z,72.80
2017-07-06T00:41:37.243Z,72.20
2017-07-06T00:44:05.327Z,72.80
2017-07-06T00:46:33.416Z,73.00
2017-07-06T00:49:01.513Z,73.00
2017-07-06T00:51:29.589Z,70.50
2017-07-06T00:53:57.690Z,70.70
2017-07-06T00:56:25.774Z,70.90
2017-07-06T00:58:53.896Z,72.50
2017-07-06T01:01:21.981Z,73.20
2017-07-06T01:03:50.111Z,73.00
2017-07-06T01:06:18.211Z,73.60
2017-07-06T01:08:46.287Z,73.40
2017-07-06T01:11:14.373Z,73.10
2017-07-06T01:13:42.448Z,73.00
2017-07-06T01:16:10.550Z,73.80
2017-07-06T01:18:38.641Z,75.40
2017-07-06T01:21:06.737Z,75.70
2017-07-06T01:23:34.828Z,75.50
2017-07-06T01:26:02.904Z,76.40
2017-07-06T01:28:30.994Z,78.40
2017-07-06T01:30:59.109Z,79.40
2017-07-06T01:33:27.206Z,79.80
2017-07-06T01:35:55.291Z,79.00
2017-07-06T01:38:23.386Z,78.50
2017-07-06T01:40:51.462Z,78.10
2017-07-06T01:43:19.548Z,78.00
2017-07-06T01:45:47.633Z,78.50
2017-07-06T01:48:15.935Z,78.20
2017-07-06T01:50:44.024Z,79.70
2017-07-06T01:53:12.100Z,81.40
2017-07-06T01:55:40.184Z,81.70
2017-07-06T01:58:08.260Z,84.80
2017-07-06T02:00:36.351Z,83.80
2017-07-06T02:03:04.428Z,82.80
2017-07-06T02:05:32.533Z,82.20
2017-07-06T02:08:00.616Z,81.80
2017-07-06T02:10:28.700Z,81.30
2017-07-06T02:12:56.812Z,80.60
2017-07-06T02:15:24.965Z,80.70
2017-07-06T02:17:53.060Z,80.20
2017-07-06T02:20:21.176Z,82.30
2017-07-06T02:22:49.260Z,82.70
2017-07-06T02:25:17.340Z,82.80
2017-07-06T02:27:45.441Z,83.40
2017-07-06T02:30:13.535Z,82.60
2017-07-06T02:32:41.629Z,82.20
2017-07-06T02:35:09.716Z,81.80
2017-07-06T02:37:37.805Z,81.30
2017-07-06T02:40:05.923Z,81.50
2017-07-06T02:42:34.023Z,80.70
2017-07-06T02:45:02.227Z,80.00
2017-07-06T02:47:30.333Z,79.70
2017-07-06T02:49:58.421Z,80.50
2017-07-06T02:52:26.505Z,82.10
2017-07-06T02:54:54.596Z,82.10
2017-07-06T02:57:22.696Z,82.50
2017-07-06T02:59:50.820Z,81.70
2017-07-06T03:02:18.898Z,82.40
2017-07-06T03:04:47.012Z,83.00
2017-07-06T03:07:15.105Z,82.80
2017-07-06T03:09:43.188Z,82.70
2017-07-06T03:12:11.284Z,82.70
2017-07-06T03:14:39.456Z,82.80
2017-07-06T03:17:07.567Z,83.30
2017-07-06T03:19:35.661Z,83.90
2017-07-06T03:22:03.748Z,83.50
2017-07-06T03:24:31.837Z,84.00
2017-07-06T03:26:59.945Z,83.80
2017-07-06T03:29:28.044Z,83.60
2017-07-06T03:31:56.132Z,83.70
2017-07-06T03:34:24.211Z,83.50
2017-07-06T03:36:52.300Z,83.60
2017-07-06T03:39:20.387Z,83.60
2017-07-06T03:41:48.496Z,84.30
2017-07-06T03:44:16.588Z,85.00
2017-07-06T03:46:44.695Z,84.10
2017-07-06T03:49:12.805Z,84.00
2017-07-06T03:51:40.895Z,84.40
2017-07-06T03:54:08.989Z,85.10
2017-07-06T03:56:37.076Z,86.10
2017-07-06T03:59:05.172Z,85.10
2017-07-06T04:01:33.275Z,84.60
2017-07-06T04:04:01.364Z,84.90
2017-07-06T04:06:29.460Z,85.30
2017-07-06T04:08:57.559Z,86.60
2017-07-06T04:11:25.653Z,85.90
2017-07-06T04:13:53.753Z,85.50
2017-07-06T04:16:21.869Z,84.70
2017-07-06T04:18:49.979Z,85.40
2017-07-06T04:21:18.056Z,85.80
2017-07-06T04:23:46.155Z,85.10
2017-07-06T04:26:14.267Z,84.70
2017-07-06T04:28:42.373Z,85.40
2017-07-06T04:31:10.468Z,85.50
2017-07-06T04:33:38.561Z,84.50
2017-07-06T04:36:06.661Z,83.80
2017-07-06T04:38:34.745Z,82.90
2017-07-06T04:41:02.852Z,82.00
2017-07-06T04:43:31.007Z,82.30
2017-07-06T04:45:59.393Z,81.80
2017-07-06T04:48:27.476Z,80.00
2017-07-06T04:50:55.587Z,79.80
2017-07-06T04:53:23.692Z,78.10
2017-07-06T04:55:51.779Z,78.10
2017-07-06T04:58:19.880Z,76.40
2017-07-06T05:00:47.972Z,76.80
2017-07-06T05:03:16.086Z,75.70
2017-07-06T05:05:44.167Z,73.50
2017-07-06T05:08:12.257Z,72.80
2017-07-06T05:10:40.352Z,72.20
2017-07-06T05:13:08.457Z,71.70
2017-07-06T05:15:36.538Z,71.00
2017-07-06T05:18:04.638Z,70.70
2017-07-06T05:20:32.735Z,71.20
2017-07-06T05:23:00.831Z,70.10
2017-07-06T05:25:28.921Z,70.60
2017-07-06T05:27:57.011Z,69.40
2017-07-06T05:30:25.106Z,68.80
2017-07-06T05:32:53.210Z,67.90
2017-07-06T05:35:21.330Z,66.90
2017-07-06T05:37:49.429Z,66.30
2017-07-06T05:40:17.524Z,65.50
2017-07-06T05:42:45.605Z,65.60
2017-07-06T05:45:13.690Z,65.70
2017-07-06T05:47:41.788Z,65.20
2017-07-06T05:50:09.888Z,65.00
2017-07-06T05:52:37.976Z,64.30
2017-07-06T05:55:06.055Z,64.80
2017-07-06T05:57:34.139Z,65.50
2017-07-06T06:00:02.244Z,63.70
2017-07-06T06:02:30.345Z,61.20
2017-07-06T06:04:58.434Z,59.60
2017-07-06T06:07:26.524Z,58.70
2017-07-06T06:09:54.612Z,58.90
2017-07-06T06:12:22.715Z,58.80
2017-07-06T06:14:50.797Z,59.70
2017-07-06T06:17:18.883Z,60.50
2017-07-06T06:19:46.958Z,59.30
2017-07-06T06:22:15.047Z,59.40
2017-07-06T06:24:43.136Z,58.10
2017-07-06T06:27:11.238Z,57.30
2017-07-06T06:29:39.319Z,56.90
2017-07-06T06:32:07.401Z,57.60
2017-07-06T06:34:35.492Z,58.70
2017-07-06T06:37:03.579Z,58.70
2017-07-06T06:39:31.671Z,59.80
2017-07-06T06:41:59.751Z,58.20
2017-07-06T06:44:27.845Z,58.40
2017-07-06T06:46:55.925Z,57.20
2017-07-06T06:49:24.004Z,58.20
2017-07-06T06:51:52.087Z,57.20
2017-07-06T06:54:20.178Z,56.50
2017-07-06T06:56:48.260Z,56.10
2017-07-06T06:59:16.350Z,57.00
2017-07-06T07:01:44.428Z,56.70
2017-07-06T07:04:12.526Z,56.60
2017-07-06T07:06:40.623Z,55.60
2017-07-06T07:09:08.700Z,54.20
2017-07-06T07:11:36.784Z,53.70
2017-07-06T07:14:04.875Z,55.80
2017-07-06T07:16:32.979Z,56.60
2017-07-06T07:19:01.087Z,56.20
2017-07-06T07:21:29.200Z,55.00
2017-07-06T07:23:57.387Z,53.80
2017-07-06T07:26:25.563Z,53.40
2017-07-06T07:28:53.582Z,51.60
2017-07-06T07:31:21.673Z,49.70
2017-07-06T07:33:50.742Z,50.40
2017-07-06T07:36:18.819Z,49.20
2017-07-06T07:38:46.903Z,50.30
2017-07-06T07:41:14.972Z,50.10
2017-07-06T07:43:43.051Z,47.90
2017-07-06T07:46:11.136Z,47.00
2017-07-06T07:48:39.237Z,46.20
2017-07-06T07:51:07.323Z,46.30
2017-07-06T07:53:35.456Z,46.30
2017-07-06T07:56:03.548Z,44.60
2017-07-06T07:58:31.636Z,43.90
2017-07-06T08:00:59.730Z,44.10
2017-07-06T08:03:27.813Z,43.60
2017-07-06T08:05:55.919Z,42.90
2017-07-06T08:08:23.992Z,41.20
2017-07-06T08:10:52.093Z,40.80
2017-07-06T08:13:20.184Z,39.90
2017-07-06T08:15:48.269Z,40.90
2017-07-06T08:18:16.347Z,41.00
2017-07-06T08:20:44.467Z,41.10
2017-07-06T08:23:12.557Z,42.10
2017-07-06T08:25:40.648Z,40.80
2017-07-06T08:28:08.750Z,39.80
2017-07-06T08:30:36.829Z,39.50
2017-07-06T08:33:04.923Z,40.50
2017-07-06T08:35:33.015Z,40.00
2017-07-06T08:38:01.108Z,38.70
2017-07-06T08:40:29.189Z,39.00
2017-07-06T08:42:57.283Z,39.10
2017-07-06T08:45:25.371Z,39.70
2017-07-06T08:47:53.495Z,38.10
2017-07-06T08:50:21.595Z,38.40
2017-07-06T08:52:49.684Z,37.90
2017-07-06T08:55:17.776Z,37.60
2017-07-06T08:57:45.852Z,37.30
2017-07-06T09:00:13.931Z,36.40
2017-07-06T09:02:42.016Z,36.60
2017-07-06T09:05:10.100Z,41.50
2017-07-06T09:07:38.183Z,38.90
2017-07-06T09:10:06.264Z,39.90
2017-07-06T09:12:34.344Z,39.20
2017-07-06T09:15:02.434Z,37.30
2017-07-06T09:17:30.522Z,36.10
2017-07-06T09:19:58.592Z,36.80
2017-07-06T09:22:26.682Z,35.20
2017-07-06T09:24:54.765Z,36.00
2017-07-06T09:27:22.847Z,35.30
2017-07-06T09:29:50.919Z,33.80
2017-07-06T09:32:19.005Z,33.10
2017-07-06T09:34:47.079Z,32.10
2017-07-06T09:37:15.185Z,31.40
2017-07-06T09:39:43.263Z,30.40
2017-07-06T09:42:11.343Z,33.10
2017-07-06T09:44:39.447Z,31.00
2017-07-06T09:47:07.541Z,32.40
2017-07-06T09:49:35.624Z,32.80
2017-07-06T09:52:03.705Z,31.00
2017-07-06T09:54:31.781Z,30.20
2017-07-06T09:56:59.861Z,29.70
2017-07-06T09:59:28.198Z,28.50
2017-07-06T10:01:56.259Z,28.80
2017-07-06T10:04:24.360Z,28.30
2017-07-06T10:06:52.439Z,30.30
2017-07-06T10:09:20.541Z,29.00
2017-07-06T10:11:48.615Z,28.80
2017-07-06T10:14:16.692Z,28.20
2017-07-06T10:16:44.770Z,28.90
2017-07-06T10:19:12.861Z,29.30
2017-07-06T10:21:40.937Z,29.80
2017-07-06T10:24:09.028Z,29.00
2017-07-06T10:26:37.111Z,28.10
2017-07-06T10:29:05.189Z,27.30
2017-07-06T10:31:33.265Z,27.30
2017-07-06T10:34:01.346Z,27.50
2017-07-06T10:36:29.422Z,27.50
2017-07-06T10:38:57.508Z,26.70
2017-07-06T10:41:25.593Z,27.40
2017-07-06T10:43:53.673Z,27.70
2017-07-06T10:46:21.760Z,29.00
2017-07-06T10:48:49.846Z,28.50
2017-07-06T10:51:17.921Z,27.90
2017-07-06T10:53:46.015Z,27.00
2017-07-06T10:56:14.100Z,26.30
2017-07-06T10:58:42.192Z,26.20
2017-07-06T11:01:10.288Z,25.70
2017-07-06T11:03:38.370Z,24.90
2017-07-06T11:06:06.444Z,25.50
2017-07-06T11:08:34.528Z,28.10
2017-07-06T11:11:02.623Z,27.30
2017-07-06T11:13:30.706Z,26.80
2017-07-06T11:15:58.790Z,28.00
2017-07-06T11:18:26.867Z,26.20
2017-07-06T11:20:54.957Z,26.40
2017-07-06T11:23:23.028Z,25.40
2017-07-06T11:25:51.110Z,26.50
2017-07-06T11:28:19.189Z,24.90
2017-07-06T11:30:47.264Z,25.10
2017-07-06T11:33:15.360Z,24.60
2017-07-06T11:35:43.436Z,24.10
2017-07-06T11:38:11.525Z,24.20
2017-07-06T11:40:39.604Z,26.10
2017-07-06T11:43:07.684Z,26.50
2017-07-06T11:45:35.789Z,27.60
2017-07-06T11:48:03.871Z,27.70
2017-07-06T11:50:31.967Z,27.60
2017-07-06T11:53:00.817Z,29.00
2017-07-06T11:55:28.895Z,28.90
2017-07-06T11:57:56.984Z,27.60
2017-07-06T12:00:25.060Z,25.60
2017-07-06T12:02:53.136Z,27.50
2017-07-06T12:05:21.228Z,26.70
2017-07-06T12:07:49.317Z,24.80
2017-07-06T12:10:17.409Z,24.30
2017-07-06T12:12:45.492Z,25.20
2017-07-06T12:15:13.586Z,27.00
2017-07-06T12:17:41.661Z,26.30
2017-07-06T12:20:09.763Z,25.30
2017-07-06T12:22:37.855Z,25.60
2017-07-06T12:25:05.951Z,24.20
2017-07-06T12:27:34.040Z,24.40
2017-07-06T12:30:02.891Z,24.30
2017-07-06T12:32:31.306Z,24.30
2017-07-06T12:34:59.379Z,24.00
2017-07-06T12:37:27.469Z,23.60
2017-07-06T12:39:55.549Z,23.50
2017-07-06T12:42:23.647Z,25.10
2017-07-06T12:44:51.728Z,24.00
2017-07-06T12:47:19.801Z,27.80
2017-07-06T12:49:47.935Z,28.30
2017-07-06T12:52:15.972Z,25.20
2017-07-06T12:54:44.821Z,24.90
2017-07-06T12:57:12.900Z,24.90
2017-07-06T12:59:40.990Z,24.10
2017-07-06T13:02:09.104Z,23.60
2017-07-06T13:04:37.195Z,23.30
2017-07-06T13:07:05.285Z,23.00
2017-07-06T13:09:33.365Z,23.20
2017-07-06T13:12:01.440Z,22.10
2017-07-06T13:14:29.527Z,23.20
2017-07-06T13:16:57.604Z,23.70
2017-07-06T13:19:25.697Z,23.90
2017-07-06T13:21:53.783Z,24.10
2017-07-06T13:24:21.859Z,24.20
2017-07-06T13:26:49.949Z,24.70
2017-07-06T13:29:18.031Z,25.30
2017-07-06T13:31:46.111Z,26.20
2017-07-06T13:34:14.955Z,25.20
2017-07-06T13:36:43.048Z,25.10
2017-07-06T13:39:11.137Z,24.30
2017-07-06T13:41:39.215Z,24.40
2017-07-06T13:44:07.304Z,24.10
2017-07-06T13:46:35.377Z,24.70
2017-07-06T13:49:03.476Z,26.40
2017-07-06T13:51:31.555Z,24.80
2017-07-06T13:53:59.636Z,25.50
2017-07-06T13:56:27.722Z,24.40
2017-07-06T13:58:55.823Z,25.80
2017-07-06T14:01:23.903Z,25.40
2017-07-06T14:03:52.203Z,27.30
2017-07-06T14:06:20.293Z,25.90
2017-07-06T14:08:48.397Z,26.90
2017-07-06T14:11:16.494Z,26.90
2017-07-06T14:13:44.590Z,27.10
2017-07-06T14:19:10.041Z,25.90
2017-07-06T14:21:38.139Z,26.00
2017-07-06T14:24:06.204Z,26.50
2017-07-06T14:26:34.289Z,24.60
2017-07-06T14:29:02.373Z,25.60
2017-07-06T14:31:30.453Z,24.90
2017-07-06T14:33:58.539Z,25.60
2017-07-06T14:36:26.641Z,26.10
2017-07-06T14:38:54.720Z,26.00
2017-07-06T14:41:23.775Z,26.90
2017-07-06T14:43:51.856Z,26.80
2017-07-06T14:46:19.937Z,27.50
2017-07-06T14:48:48.390Z,26.90
2017-07-06T14:51:16.454Z,26.30
2017-07-06T14:53:44.549Z,26.50
2017-07-06T14:56:12.623Z,27.10
2017-07-06T14:58:40.720Z,27.30
2017-07-06T15:01:08.811Z,26.10
2017-07-06T15:03:36.888Z,26.70
2017-07-06T15:06:05.032Z,28.40
2017-07-06T15:08:33.116Z,27.70
2017-07-06T15:11:01.277Z,27.60
2017-07-06T15:13:29.353Z,26.00
2017-07-06T15:15:57.433Z,27.20
2017-07-06T15:18:25.514Z,28.60
2017-07-06T15:20:53.601Z,27.10
2017-07-06T15:23:21.684Z,27.20
2017-07-06T15:25:49.786Z,27.30
2017-07-06T15:28:17.856Z,27.10
2017-07-06T15:30:45.947Z,27.70
2017-07-06T15:33:14.052Z,28.40
2017-07-06T15:35:42.124Z,26.40
2017-07-06T15:38:10.208Z,26.60
2017-07-06T15:40:38.289Z,26.70
2017-07-06T15:43:06.389Z,27.10
2017-07-06T15:45:34.481Z,26.90
2017-07-06T15:48:02.572Z,25.60
2017-07-06T15:50:30.665Z,25.60
2017-07-06T15:52:58.757Z,26.50
2017-07-06T15:55:26.835Z,26.20
2017-07-06T15:57:54.919Z,26.90
2017-07-06T16:00:23.002Z,27.30
2017-07-06T16:02:51.096Z,27.00
2017-07-06T16:05:19.180Z,27.50
2017-07-06T16:07:47.278Z,27.70
2017-07-06T16:10:15.369Z,28.40
2017-07-06T16:12:43.455Z,27.20
2017-07-06T16:15:11.536Z,27.30
2017-07-06T16:17:39.604Z,26.90
2017-07-06T16:20:07.701Z,27.00
2017-07-06T16:22:35.803Z,28.20
2017-07-06T16:25:03.883Z,27.90
2017-07-06T16:27:31.965Z,28.00
2017-07-06T16:30:00.058Z,28.40
2017-07-06T16:32:28.137Z,28.60
2017-07-06T16:34:56.228Z,28.80
2017-07-06T16:37:24.303Z,29.10
2017-07-06T16:39:52.389Z,29.30
2017-07-06T16:42:20.464Z,28.80
2017-07-06T16:44:48.544Z,29.10
2017-07-06T16:47:16.623Z,29.80
2017-07-06T16:49:44.711Z,29.60
2017-07-06T16:52:12.801Z,30.60
2017-07-06T16:54:40.887Z,30.10
2017-07-06T16:57:08.973Z,29.80
2017-07-06T16:59:37.064Z,30.90
2017-07-06T17:02:05.150Z,31.10
2017-07-06T17:04:33.245Z,31.80
2017-07-06T17:07:01.343Z,32.20
2017-07-06T17:09:29.436Z,30.70
2017-07-06T17:11:57.522Z,30.00
2017-07-06T17:14:25.608Z,30.60
2017-07-06T17:16:53.692Z,32.30
2017-07-06T17:19:21.764Z,30.70
2017-07-06T17:21:49.831Z,30.50
2017-07-06T17:24:17.921Z,31.10
2017-07-06T17:26:45.999Z,31.70
2017-07-06T17:29:14.083Z,32.50
2017-07-06T17:31:42.168Z,34.40
2017-07-06T17:34:10.263Z,37.60
2017-07-06T17:36:38.350Z,39.00
2017-07-06T17:39:06.779Z,40.20
2017-07-06T17:41:34.863Z,40.00
2017-07-06T17:44:02.947Z,41.60
2017-07-06T17:46:31.032Z,41.30
2017-07-06T17:48:59.104Z,41.40
2017-07-06T17:51:27.188Z,38.20
2017-07-06T17:53:55.256Z,39.80
2017-07-06T17:56:23.327Z,42.00
2017-07-06T17:58:51.410Z,44.00
2017-07-06T18:01:19.501Z,44.10
2017-07-06T18:03:47.583Z,44.20
2017-07-06T18:06:15.673Z,45.00
2017-07-06T18:08:43.754Z,44.90
2017-07-06T18:11:11.829Z,44.80
2017-07-06T18:13:39.918Z,43.50
2017-07-06T18:16:08.005Z,45.40
2017-07-06T18:18:36.084Z,46.50
2017-07-06T18:21:04.178Z,47.20
2017-07-06T18:23:32.263Z,46.60
2017-07-06T18:26:00.348Z,46.10
2017-07-06T18:28:28.431Z,44.60
2017-07-06T18:30:56.515Z,46.30
2017-07-06T18:33:24.604Z,45.80
2017-07-06T18:35:52.702Z,46.60
2017-07-06T18:38:20.778Z,46.80
2017-07-06T18:40:48.863Z,46.90
2017-07-06T18:43:16.963Z,48.20
2017-07-06T18:48:41.872Z,49.10
2017-07-06T18:51:09.967Z,49.50
2017-07-06T18:53:38.053Z,48.30
2017-07-06T18:56:06.139Z,48.30
2017-07-06T18:58:34.218Z,47.30
2017-07-06T19:01:02.315Z,49.30
2017-07-06T19:03:30.400Z,48.90
2017-07-06T19:05:58.492Z,48.90
2017-07-06T19:08:26.581Z,48.40
2017-07-06T19:10:54.864Z,47.20
2017-07-06T19:13:22.959Z,47.00
2017-07-06T19:15:51.053Z,47.60
2017-07-06T19:18:19.128Z,49.30
2017-07-06T19:20:47.221Z,49.60
2017-07-06T19:23:15.311Z,49.00
2017-07-06T19:25:43.392Z,45.70
2017-07-06T19:28:11.480Z,46.60
2017-07-06T19:30:39.556Z,48.00
2017-07-06T19:33:07.657Z,50.40
2017-07-06T19:35:35.789Z,51.10
2017-07-06T19:38:04.055Z,50.20
2017-07-06T19:40:32.129Z,51.30
2017-07-06T19:43:00.215Z,51.60
2017-07-06T19:45:28.312Z,49.70
2017-07-06T19:47:56.413Z,50.60
2017-07-06T19:50:24.497Z,51.80
2017-07-06T19:52:52.576Z,48.40
2017-07-06T19:55:20.671Z,48.40
2017-07-06T19:57:48.765Z,48.30
2017-07-06T20:00:16.843Z,48.10
2017-07-06T20:02:44.933Z,47.10
2017-07-06T20:05:13.013Z,46.90
2017-07-06T20:07:41.095Z,47.10
2017-07-06T20:10:09.179Z,47.10
2017-07-06T20:12:37.265Z,46.80
2017-07-06T20:15:05.344Z,46.90
2017-07-06T20:17:33.424Z,47.30
2017-07-06T20:20:01.517Z,47.30
2017-07-06T20:22:29.625Z,47.70
2017-07-06T20:24:57.714Z,48.60
2017-07-06T20:27:25.789Z,48.70
2017-07-06T20:29:53.868Z,49.00
2017-07-06T20:32:21.956Z,49.40
2017-07-06T20:34:50.043Z,49.60
2017-07-06T20:37:18.119Z,49.80
2017-07-06T20:39:46.199Z,49.40
2017-07-06T20:42:14.280Z,49.50
2017-07-06T20:44:42.369Z,50.00
2017-07-06T20:47:10.443Z,49.80
2017-07-06T20:49:38.531Z,49.80
2017-07-06T20:52:06.623Z,49.60
2017-07-06T20:54:34.701Z,49.90
2017-07-06T20:57:02.792Z,50.20
2017-07-06T20:59:30.875Z,50.60
2017-07-06T21:01:58.959Z,50.20
2017-07-06T21:04:27.108Z,50.40
2017-07-06T21:06:55.235Z,50.70
2017-07-06T21:09:23.375Z,50.90
2017-07-06T21:11:51.517Z,51.10
2017-07-06T21:14:19.644Z,51.00
2017-07-06T21:16:47.769Z,51.00
2017-07-06T21:19:15.839Z,51.50
2017-07-06T21:21:43.980Z,51.80
2017-07-06T21:24:12.167Z,52.30
2017-07-06T21:26:40.345Z,52.20
2017-07-06T21:29:08.395Z,52.40
2017-07-06T21:31:36.472Z,52.60
2017-07-06T21:34:04.555Z,52.50
2017-07-06T21:36:32.636Z,52.40
2017-07-06T21:39:00.725Z,52.20
2017-07-06T21:41:29.687Z,53.20
2017-07-06T21:43:57.778Z,53.10
2017-07-06T21:46:25.873Z,53.40
2017-07-06T21:48:53.945Z,53.80
2017-07-06T21:51:22.029Z,54.00
2017-07-06T21:53:50.112Z,54.60
2017-07-06T21:56:18.183Z,54.60
2017-07-06T21:58:46.264Z,54.10
2017-07-06T22:01:14.347Z,54.10
2017-07-06T22:03:42.423Z,54.10
2017-07-06T22:06:10.519Z,54.00
2017-07-06T22:08:38.605Z,54.00
2017-07-06T22:11:06.685Z,54.10
2017-07-06T22:13:34.777Z,54.60
2017-07-06T22:16:02.860Z,54.30
2017-07-06T22:18:30.940Z,54.20
2017-07-06T22:20:59.016Z,54.10
2017-07-06T22:23:27.103Z,54.20
2017-07-06T22:25:55.193Z,54.10
2017-07-06T22:28:23.275Z,53.90
2017-07-06T22:30:51.371Z,54.60
2017-07-06T22:33:19.449Z,54.10
2017-07-06T22:35:47.542Z,54.40
2017-07-06T22:38:15.614Z,54.00
2017-07-06T22:40:43.694Z,55.30
2017-07-06T22:43:11.770Z,56.30
2017-07-06T22:45:39.856Z,55.70
2017-07-06T22:48:07.941Z,56.80
2017-07-06T22:50:36.027Z,57.70
2017-07-06T22:53:04.128Z,57.90
2017-07-06T22:55:32.219Z,58.10
2017-07-06T22:58:00.295Z,58.30
2017-07-06T23:00:28.545Z,58.50
2017-07-06T23:02:56.646Z,58.80
2017-07-06T23:05:24.741Z,59.20
2017-07-06T23:07:52.837Z,59.90
2017-07-06T23:10:20.920Z,60.60
2017-07-06T23:12:49.002Z,60.50
2017-07-06T23:15:17.091Z,60.30
2017-07-06T23:17:45.180Z,60.80
2017-07-06T23:20:13.270Z,62.00
2017-07-06T23:22:41.380Z,62.20
2017-07-06T23:25:09.656Z,61.50
2017-07-06T23:27:37.820Z,60.90
2017-07-06T23:30:05.908Z,62.30
2017-07-06T23:32:34.000Z,64.20
2017-07-06T23:35:02.120Z,64.80
2017-07-06T23:37:30.196Z,65.90
2017-07-06T23:39:58.281Z,65.30
2017-07-06T23:42:26.359Z,66.10
2017-07-06T23:44:54.448Z,66.60
2017-07-06T23:47:22.524Z,65.00
2017-07-06T23:49:50.615Z,63.70
2017-07-06T23:52:18.705Z,63.20
2017-07-06T23:54:46.857Z,62.30
2017-07-06T23:57:14.936Z,61.80
2017-07-06T23:59:43.022Z,61.00
